Decoded Metar for KJSO (JACKSONVILLE in TX, USA) (IATA:JSO) | Meteo·Mobile Aviation Weather
aviador You're here:

KJSO Decoded Metar

JACKSONVILLE in TX, USA
Report Time2018-09-19 14:55:00
UTC Time2018-09-19 15:04:04
Flight Rules vfr VFR
Wind300° at 03 kt
W.Decomp.*RWY 32: 2.7 kt HW 1.3 kt LCW
W.Rank300° ranks 30
Current wind is below 300° avg. (6.7)
Visibility9999 m
Phenomena:N/A
Clouds:N/A
Expected CloudBase > 3,200 ft AGL from Temp-Dew spread
CeilingNone
Temp29°C (ISA +15)
Dew Point21°C (62% RH)
Heat Index31.3°C
QNH1017 hPa
Density Alt2,631 ft
Elevation676 ft
Report Wrong Elevation
Raw Report
KJSO 191455Z AUTO 30003KT 10SM CLR 29/21 A3003 RMK AO2
T02950218=

Extra information for KJSO:More info

Metar Taf Metar & Taf Last 4 Metars F.Rules Stats Wind Profile Meteogram Temp Stats Airport Information Weather charts Add Link Nearby VenuesMetar ALERT Operation Metar Decoded Social comments

AIRNAV info for KJSO